Terminal Aerodrome Forecast
Issued by NWS

Home | Current Version | Previous Version | Text Only | Print | Product List | Glossary On
Versions: 1 2 3 4 5 6 7 8 9 10 11 12 13 14 15 16 17 18
000
FTAK31 PANC 252340
TAFAIL
TAF
PAIL 252340Z 2600/2624 22014G22KT P6SM VCSH BKN025 BKN040
      TEMPO 2600/2603 SCT025 BKN040
     FM260700 22007KT P6SM SCT030 OVC050
     FM261200 VRB05KT P6SM SCT025 OVC040
     FM262100 12010KT P6SM VCSH BKN025 OVC040=

USA.gov is the U.S. government's official web portal to all federal, state and local government web resources and services.